RJTJ(METAR)
12/04 21:00
METAR RJTJ 041200Z 01009KT 9999 FEW030 BKN170 BKN/// 10/M00 Q1019
RMK 1CU030 7AC170 A3010=
戻る
トップページへ戻る
IMOC Co,.Ltd.